sensor_id;sensor_type;location;lat;lon;timestamp;P1;durP1;ratioP1;P2;durP2;ratioP2
3975;SDS011;2002;48.812;9.180;2023-02-25T00:00:06;1.93;;;1.83;;
3975;SDS011;2002;48.812;9.180;2023-02-25T00:02:43;2.20;;;2.00;;
3975;SDS011;2002;48.812;9.180;2023-02-25T00:05:09;1.93;;;1.57;;
3975;SDS011;2002;48.812;9.180;2023-02-25T00:07:35;1.87;;;1.67;;
3975;SDS011;2002;48.812;9.180;2023-02-25T00:10:01;2.07;;;1.93;;
3975;SDS011;2002;48.812;9.180;2023-02-25T00:12:27;1.73;;;1.63;;
3975;SDS011;2002;48.812;9.180;2023-02-25T00:14:53;2.10;;;1.90;;
3975;SDS011;2002;48.812;9.180;2023-02-25T00:17:19;2.63;;;2.43;;
3975;SDS011;2002;48.812;9.180;2023-02-25T00:19:44;1.90;;;1.80;;
3975;SDS011;2002;48.812;9.180;2023-02-25T00:22:10;2.20;;;1.97;;
3975;SDS011;2002;48.812;9.180;2023-02-25T00:24:35;2.23;;;2.03;;
3975;SDS011;2002;48.812;9.180;2023-02-25T00:27:01;2.13;;;1.93;;
3975;SDS011;2002;48.812;9.180;2023-02-25T00:29:27;2.17;;;1.80;;
3975;SDS011;2002;48.812;9.180;2023-02-25T00:31:53;1.93;;;1.60;;
3975;SDS011;2002;48.812;9.180;2023-02-25T00:34:18;2.00;;;1.90;;
3975;SDS011;2002;48.812;9.180;2023-02-25T00:36:44;3.33;;;1.50;;
3975;SDS011;2002;48.812;9.180;2023-02-25T00:39:10;1.57;;;1.47;;
3975;SDS011;2002;48.812;9.180;2023-02-25T00:41:35;2.57;;;2.17;;
3975;SDS011;2002;48.812;9.180;2023-02-25T00:44:02;1.90;;;1.80;;
3975;SDS011;2002;48.812;9.180;2023-02-25T00:46:28;1.83;;;1.73;;
3975;SDS011;2002;48.812;9.180;2023-02-25T00:48:54;1.77;;;1.67;;
3975;SDS011;2002;48.812;9.180;2023-02-25T00:51:21;1.93;;;1.70;;
3975;SDS011;2002;48.812;9.180;2023-02-25T00:53:48;1.70;;;1.60;;
3975;SDS011;2002;48.812;9.180;2023-02-25T00:56:14;1.63;;;1.53;;
3975;SDS011;2002;48.812;9.180;2023-02-25T00:58:45;2.17;;;1.80;;
3975;SDS011;2002;48.812;9.180;2023-02-25T01:03:45;1.60;;;1.50;;
3975;SDS011;2002;48.812;9.180;2023-02-25T01:06:12;2.27;;;2.07;;
3975;SDS011;2002;48.812;9.180;2023-02-25T01:08:38;1.80;;;1.70;;
3975;SDS011;2002;48.812;9.180;2023-02-25T01:11:10;1.90;;;1.80;;
3975;SDS011;2002;48.812;9.180;2023-02-25T01:13:50;1.73;;;1.60;;
3975;SDS011;2002;48.812;9.180;2023-02-25T01:16:17;1.67;;;1.57;;
3975;SDS011;2002;48.812;9.180;2023-02-25T01:18:45;2.23;;;2.03;;
3975;SDS011;2002;48.812;9.180;2023-02-25T01:21:15;2.17;;;1.73;;
3975;SDS011;2002;48.812;9.180;2023-02-25T01:23:43;2.23;;;1.70;;
3975;SDS011;2002;48.812;9.180;2023-02-25T01:26:14;1.67;;;1.57;;
3975;SDS011;2002;48.812;9.180;2023-02-25T01:28:40;1.50;;;1.40;;
3975;SDS011;2002;48.812;9.180;2023-02-25T01:31:06;1.70;;;1.60;;
3975;SDS011;2002;48.812;9.180;2023-02-25T01:33:40;2.07;;;1.87;;
3975;SDS011;2002;48.812;9.180;2023-02-25T01:36:07;1.77;;;1.67;;
3975;SDS011;2002;48.812;9.180;2023-02-25T01:38:33;1.30;;;1.20;;
3975;SDS011;2002;48.812;9.180;2023-02-25T01:40:59;1.80;;;1.70;;
3975;SDS011;2002;48.812;9.180;2023-02-25T01:43:25;3.50;;;2.03;;
3975;SDS011;2002;48.812;9.180;2023-02-25T01:45:52;1.77;;;1.67;;
3975;SDS011;2002;48.812;9.180;2023-02-25T01:48:19;1.57;;;1.47;;
3975;SDS011;2002;48.812;9.180;2023-02-25T01:50:56;1.80;;;1.53;;
3975;SDS011;2002;48.812;9.180;2023-02-25T01:53:27;2.23;;;2.03;;
3975;SDS011;2002;48.812;9.180;2023-02-25T01:55:57;2.33;;;2.00;;
3975;SDS011;2002;48.812;9.180;2023-02-25T01:58:24;1.93;;;1.60;;
3975;SDS011;2002;48.812;9.180;2023-02-25T02:00:51;3.27;;;1.63;;
3975;SDS011;2002;48.812;9.180;2023-02-25T02:03:21;1.73;;;1.40;;
3975;SDS011;2002;48.812;9.180;2023-02-25T02:05:55;1.70;;;1.60;;
3975;SDS011;2002;48.812;9.180;2023-02-25T02:08:29;1.67;;;1.57;;
3975;SDS011;2002;48.812;9.180;2023-02-25T02:10:56;1.90;;;1.80;;
3975;SDS011;2002;48.812;9.180;2023-02-25T02:13:22;2.03;;;1.83;;
3975;SDS011;2002;48.812;9.180;2023-02-25T02:18:34;2.03;;;1.83;;
3975;SDS011;2002;48.812;9.180;2023-02-25T02:27:08;2.17;;;1.97;;
3975;SDS011;2002;48.812;9.180;2023-02-25T02:35:18;2.07;;;1.67;;
3975;SDS011;2002;48.812;9.180;2023-02-25T02:40:52;1.63;;;1.50;;
3975;SDS011;2002;48.812;9.180;2023-02-25T02:48:57;1.70;;;1.50;;
3975;SDS011;2002;48.812;9.180;2023-02-25T02:51:38;1.63;;;1.43;;
3975;SDS011;2002;48.812;9.180;2023-02-25T02:54:10;1.70;;;1.60;;
3975;SDS011;2002;48.812;9.180;2023-02-25T02:56:38;1.57;;;1.40;;
3975;SDS011;2002;48.812;9.180;2023-02-25T02:59:09;1.80;;;1.70;;
3975;SDS011;2002;48.812;9.180;2023-02-25T03:01:51;1.80;;;1.70;;
3975;SDS011;2002;48.812;9.180;2023-02-25T03:04:22;1.40;;;1.30;;
3975;SDS011;2002;48.812;9.180;2023-02-25T03:06:58;2.00;;;1.80;;
3975;SDS011;2002;48.812;9.180;2023-02-25T03:09:35;1.90;;;1.80;;
3975;SDS011;2002;48.812;9.180;2023-02-25T03:12:06;1.67;;;1.43;;
3975;SDS011;2002;48.812;9.180;2023-02-25T03:14:32;2.23;;;1.60;;
3975;SDS011;2002;48.812;9.180;2023-02-25T03:16:59;1.83;;;1.60;;
3975;SDS011;2002;48.812;9.180;2023-02-25T03:19:36;1.67;;;1.57;;
3975;SDS011;2002;48.812;9.180;2023-02-25T03:22:07;2.10;;;1.30;;
3975;SDS011;2002;48.812;9.180;2023-02-25T03:24:49;2.00;;;1.60;;
3975;SDS011;2002;48.812;9.180;2023-02-25T03:27:28;1.40;;;1.30;;
3975;SDS011;2002;48.812;9.180;2023-02-25T03:30:02;2.07;;;1.50;;
3975;SDS011;2002;48.812;9.180;2023-02-25T03:32:31;1.40;;;1.30;;
3975;SDS011;2002;48.812;9.180;2023-02-25T03:35:01;1.50;;;1.40;;
3975;SDS011;2002;48.812;9.180;2023-02-25T03:37:29;1.53;;;1.43;;
3975;SDS011;2002;48.812;9.180;2023-02-25T03:39:57;1.90;;;1.53;;
3975;SDS011;2002;48.812;9.180;2023-02-25T03:42:32;1.63;;;1.30;;
3975;SDS011;2002;48.812;9.180;2023-02-25T03:45:01;1.40;;;1.30;;
3975;SDS011;2002;48.812;9.180;2023-02-25T03:47:32;2.17;;;1.97;;
3975;SDS011;2002;48.812;9.180;2023-02-25T03:50:02;1.93;;;1.83;;
3975;SDS011;2002;48.812;9.180;2023-02-25T03:52:50;1.53;;;1.43;;
3975;SDS011;2002;48.812;9.180;2023-02-25T03:55:16;1.43;;;1.33;;
3975;SDS011;2002;48.812;9.180;2023-02-25T03:57:43;1.10;;;1.00;;
3975;SDS011;2002;48.812;9.180;2023-02-25T04:00:18;1.30;;;1.20;;
3975;SDS011;2002;48.812;9.180;2023-02-25T04:02:47;1.80;;;1.57;;
3975;SDS011;2002;48.812;9.180;2023-02-25T04:05:13;1.30;;;1.20;;
3975;SDS011;2002;48.812;9.180;2023-02-25T04:07:40;1.87;;;1.60;;
3975;SDS011;2002;48.812;9.180;2023-02-25T04:10:06;1.63;;;1.47;;
3975;SDS011;2002;48.812;9.180;2023-02-25T04:12:32;1.47;;;1.30;;
3975;SDS011;2002;48.812;9.180;2023-02-25T04:14:58;1.70;;;1.60;;
3975;SDS011;2002;48.812;9.180;2023-02-25T04:17:24;1.80;;;1.70;;
3975;SDS011;2002;48.812;9.180;2023-02-25T04:19:50;1.30;;;1.17;;
3975;SDS011;2002;48.812;9.180;2023-02-25T04:22:16;1.70;;;1.30;;
3975;SDS011;2002;48.812;9.180;2023-02-25T04:24:41;1.10;;;1.00;;
3975;SDS011;2002;48.812;9.180;2023-02-25T04:27:07;1.83;;;1.67;;
3975;SDS011;2002;48.812;9.180;2023-02-25T04:29:32;1.57;;;1.47;;
3975;SDS011;2002;48.812;9.180;2023-02-25T04:31:58;1.80;;;1.70;;
3975;SDS011;2002;48.812;9.180;2023-02-25T04:34:23;1.63;;;1.23;;
3975;SDS011;2002;48.812;9.180;2023-02-25T04:36:49;1.83;;;1.70;;
3975;SDS011;2002;48.812;9.180;2023-02-25T04:39:15;1.90;;;1.80;;
3975;SDS011;2002;48.812;9.180;2023-02-25T04:41:42;1.20;;;1.10;;
3975;SDS011;2002;48.812;9.180;2023-02-25T04:44:08;2.07;;;1.40;;
3975;SDS011;2002;48.812;9.180;2023-02-25T04:46:35;1.40;;;1.30;;
3975;SDS011;2002;48.812;9.180;2023-02-25T04:49:03;1.33;;;1.20;;
3975;SDS011;2002;48.812;9.180;2023-02-25T04:51:29;1.63;;;1.40;;
3975;SDS011;2002;48.812;9.180;2023-02-25T04:53:55;1.30;;;1.20;;
3975;SDS011;2002;48.812;9.180;2023-02-25T04:56:21;1.80;;;1.37;;
3975;SDS011;2002;48.812;9.180;2023-02-25T04:58:47;1.67;;;1.57;;
3975;SDS011;2002;48.812;9.180;2023-02-25T05:01:12;1.30;;;1.10;;
3975;SDS011;2002;48.812;9.180;2023-02-25T05:03:39;1.40;;;1.30;;
3975;SDS011;2002;48.812;9.180;2023-02-25T05:06:05;1.30;;;1.20;;
3975;SDS011;2002;48.812;9.180;2023-02-25T05:08:32;2.17;;;1.30;;
3975;SDS011;2002;48.812;9.180;2023-02-25T05:10:58;1.20;;;1.10;;
3975;SDS011;2002;48.812;9.180;2023-02-25T05:13:24;1.00;;;0.90;;
3975;SDS011;2002;48.812;9.180;2023-02-25T05:15:51;1.47;;;1.30;;
3975;SDS011;2002;48.812;9.180;2023-02-25T05:18:17;1.40;;;1.20;;
3975;SDS011;2002;48.812;9.180;2023-02-25T05:20:43;1.60;;;1.50;;
3975;SDS011;2002;48.812;9.180;2023-02-25T05:23:10;1.77;;;1.67;;
3975;SDS011;2002;48.812;9.180;2023-02-25T05:25:36;1.67;;;1.10;;
3975;SDS011;2002;48.812;9.180;2023-02-25T05:28:05;1.30;;;1.20;;
3975;SDS011;2002;48.812;9.180;2023-02-25T05:30:31;1.57;;;1.47;;
3975;SDS011;2002;48.812;9.180;2023-02-25T05:32:57;1.73;;;1.27;;
3975;SDS011;2002;48.812;9.180;2023-02-25T05:35:22;1.50;;;1.40;;
3975;SDS011;2002;48.812;9.180;2023-02-25T05:37:48;1.33;;;1.23;;
3975;SDS011;2002;48.812;9.180;2023-02-25T05:40:14;1.50;;;1.20;;
3975;SDS011;2002;48.812;9.180;2023-02-25T05:42:39;1.57;;;1.47;;
3975;SDS011;2002;48.812;9.180;2023-02-25T05:45:06;1.40;;;1.30;;
3975;SDS011;2002;48.812;9.180;2023-02-25T05:47:32;1.17;;;1.07;;
3975;SDS011;2002;48.812;9.180;2023-02-25T05:49:58;1.17;;;1.07;;
3975;SDS011;2002;48.812;9.180;2023-02-25T05:52:23;1.63;;;1.50;;
3975;SDS011;2002;48.812;9.180;2023-02-25T05:54:49;1.70;;;1.60;;
3975;SDS011;2002;48.812;9.180;2023-02-25T05:57:15;1.33;;;1.10;;
3975;SDS011;2002;48.812;9.180;2023-02-25T05:59:41;1.50;;;1.40;;
3975;SDS011;2002;48.812;9.180;2023-02-25T06:02:06;1.10;;;1.00;;
3975;SDS011;2002;48.812;9.180;2023-02-25T06:04:32;1.30;;;1.20;;
3975;SDS011;2002;48.812;9.180;2023-02-25T06:06:57;1.53;;;1.43;;
3975;SDS011;2002;48.812;9.180;2023-02-25T06:09:23;1.50;;;1.40;;
3975;SDS011;2002;48.812;9.180;2023-02-25T06:11:48;2.13;;;1.40;;
3975;SDS011;2002;48.812;9.180;2023-02-25T06:14:14;1.40;;;1.17;;
3975;SDS011;2002;48.812;9.180;2023-02-25T06:16:40;1.07;;;0.97;;
3975;SDS011;2002;48.812;9.180;2023-02-25T06:19:07;1.40;;;1.30;;
3975;SDS011;2002;48.812;9.180;2023-02-25T06:21:33;1.50;;;1.10;;
3975;SDS011;2002;48.812;9.180;2023-02-25T06:24:00;1.17;;;1.03;;
3975;SDS011;2002;48.812;9.180;2023-02-25T06:26:27;1.33;;;1.20;;
3975;SDS011;2002;48.812;9.180;2023-02-25T06:28:53;2.10;;;1.47;;
3975;SDS011;2002;48.812;9.180;2023-02-25T06:31:19;1.63;;;1.50;;
3975;SDS011;2002;48.812;9.180;2023-02-25T06:33:47;1.40;;;1.30;;
3975;SDS011;2002;48.812;9.180;2023-02-25T06:36:14;1.17;;;1.03;;
3975;SDS011;2002;48.812;9.180;2023-02-25T06:38:41;1.23;;;1.13;;
3975;SDS011;2002;48.812;9.180;2023-02-25T06:41:09;1.27;;;1.00;;
3975;SDS011;2002;48.812;9.180;2023-02-25T06:43:40;1.40;;;1.30;;
3975;SDS011;2002;48.812;9.180;2023-02-25T06:46:07;1.90;;;1.63;;
3975;SDS011;2002;48.812;9.180;2023-02-25T06:48:34;1.13;;;1.03;;
3975;SDS011;2002;48.812;9.180;2023-02-25T06:51:00;1.50;;;1.00;;
3975;SDS011;2002;48.812;9.180;2023-02-25T06:53:27;1.40;;;1.30;;
3975;SDS011;2002;48.812;9.180;2023-02-25T06:55:53;1.30;;;1.20;;
3975;SDS011;2002;48.812;9.180;2023-02-25T06:58:18;0.90;;;0.90;;
3975;SDS011;2002;48.812;9.180;2023-02-25T07:00:44;1.40;;;1.30;;
3975;SDS011;2002;48.812;9.180;2023-02-25T07:03:10;1.47;;;1.37;;
3975;SDS011;2002;48.812;9.180;2023-02-25T07:05:37;1.23;;;1.13;;
3975;SDS011;2002;48.812;9.180;2023-02-25T07:08:03;0.80;;;0.80;;
3975;SDS011;2002;48.812;9.180;2023-02-25T07:10:29;1.00;;;0.90;;
3975;SDS011;2002;48.812;9.180;2023-02-25T07:12:54;2.10;;;1.10;;
3975;SDS011;2002;48.812;9.180;2023-02-25T07:15:20;1.27;;;1.17;;
3975;SDS011;2002;48.812;9.180;2023-02-25T07:17:46;0.77;;;0.77;;
3975;SDS011;2002;48.812;9.180;2023-02-25T07:20:12;1.20;;;1.10;;
3975;SDS011;2002;48.812;9.180;2023-02-25T07:22:38;1.03;;;0.93;;
3975;SDS011;2002;48.812;9.180;2023-02-25T07:25:06;1.10;;;1.00;;
3975;SDS011;2002;48.812;9.180;2023-02-25T07:27:32;1.37;;;1.27;;
3975;SDS011;2002;48.812;9.180;2023-02-25T07:29:58;1.07;;;0.90;;
3975;SDS011;2002;48.812;9.180;2023-02-25T07:32:25;1.20;;;1.00;;
3975;SDS011;2002;48.812;9.180;2023-02-25T07:34:51;1.27;;;1.10;;
3975;SDS011;2002;48.812;9.180;2023-02-25T07:37:16;1.17;;;0.90;;
3975;SDS011;2002;48.812;9.180;2023-02-25T07:39:42;1.50;;;1.40;;
3975;SDS011;2002;48.812;9.180;2023-02-25T07:42:07;0.87;;;0.83;;
3975;SDS011;2002;48.812;9.180;2023-02-25T07:44:33;0.90;;;0.80;;
3975;SDS011;2002;48.812;9.180;2023-02-25T07:46:59;1.33;;;1.00;;
3975;SDS011;2002;48.812;9.180;2023-02-25T07:49:25;1.10;;;1.00;;
3975;SDS011;2002;48.812;9.180;2023-02-25T07:51:51;1.23;;;0.90;;
3975;SDS011;2002;48.812;9.180;2023-02-25T07:54:16;2.00;;;1.30;;
3975;SDS011;2002;48.812;9.180;2023-02-25T07:56:45;1.23;;;1.13;;
3975;SDS011;2002;48.812;9.180;2023-02-25T07:59:14;1.10;;;0.90;;
3975;SDS011;2002;48.812;9.180;2023-02-25T08:01:40;1.13;;;0.90;;
3975;SDS011;2002;48.812;9.180;2023-02-25T08:04:05;1.00;;;0.87;;
3975;SDS011;2002;48.812;9.180;2023-02-25T08:06:35;1.57;;;1.10;;
3975;SDS011;2002;48.812;9.180;2023-02-25T08:09:03;1.80;;;1.23;;
3975;SDS011;2002;48.812;9.180;2023-02-25T08:11:29;1.00;;;0.93;;
3975;SDS011;2002;48.812;9.180;2023-02-25T08:13:55;1.30;;;0.87;;
3975;SDS011;2002;48.812;9.180;2023-02-25T08:16:25;1.10;;;1.00;;
3975;SDS011;2002;48.812;9.180;2023-02-25T08:18:51;1.37;;;1.27;;
3975;SDS011;2002;48.812;9.180;2023-02-25T08:21:18;1.83;;;0.90;;
3975;SDS011;2002;48.812;9.180;2023-02-25T08:23:45;1.17;;;1.00;;
3975;SDS011;2002;48.812;9.180;2023-02-25T08:26:12;1.83;;;1.20;;
3975;SDS011;2002;48.812;9.180;2023-02-25T08:28:41;1.37;;;1.10;;
3975;SDS011;2002;48.812;9.180;2023-02-25T08:31:08;1.50;;;1.00;;
3975;SDS011;2002;48.812;9.180;2023-02-25T08:33:36;1.37;;;1.10;;
3975;SDS011;2002;48.812;9.180;2023-02-25T08:36:14;1.23;;;1.13;;
3975;SDS011;2002;48.812;9.180;2023-02-25T08:38:42;1.10;;;1.00;;
3975;SDS011;2002;48.812;9.180;2023-02-25T08:41:08;1.17;;;1.07;;
3975;SDS011;2002;48.812;9.180;2023-02-25T08:43:34;1.50;;;1.30;;
3975;SDS011;2002;48.812;9.180;2023-02-25T08:46:01;1.53;;;1.43;;
3975;SDS011;2002;48.812;9.180;2023-02-25T08:48:27;1.37;;;0.90;;
3975;SDS011;2002;48.812;9.180;2023-02-25T08:50:52;0.90;;;0.90;;
3975;SDS011;2002;48.812;9.180;2023-02-25T08:53:19;1.13;;;1.00;;
3975;SDS011;2002;48.812;9.180;2023-02-25T08:55:45;1.13;;;1.03;;
3975;SDS011;2002;48.812;9.180;2023-02-25T08:58:11;1.00;;;0.90;;
3975;SDS011;2002;48.812;9.180;2023-02-25T09:00:37;1.40;;;1.00;;
3975;SDS011;2002;48.812;9.180;2023-02-25T09:03:02;1.77;;;1.40;;
3975;SDS011;2002;48.812;9.180;2023-02-25T09:05:28;1.00;;;0.87;;
3975;SDS011;2002;48.812;9.180;2023-02-25T09:07:54;1.20;;;1.10;;
3975;SDS011;2002;48.812;9.180;2023-02-25T09:10:20;1.33;;;1.03;;
3975;SDS011;2002;48.812;9.180;2023-02-25T09:12:45;1.23;;;1.03;;
3975;SDS011;2002;48.812;9.180;2023-02-25T09:15:12;1.17;;;0.90;;
3975;SDS011;2002;48.812;9.180;2023-02-25T09:17:38;1.00;;;0.90;;
3975;SDS011;2002;48.812;9.180;2023-02-25T09:20:04;1.20;;;1.10;;
3975;SDS011;2002;48.812;9.180;2023-02-25T09:22:32;1.43;;;1.13;;
3975;SDS011;2002;48.812;9.180;2023-02-25T09:24:58;1.20;;;1.00;;
3975;SDS011;2002;48.812;9.180;2023-02-25T09:27:24;1.10;;;0.97;;
3975;SDS011;2002;48.812;9.180;2023-02-25T09:29:50;1.10;;;1.00;;
3975;SDS011;2002;48.812;9.180;2023-02-25T09:32:17;1.73;;;1.13;;
3975;SDS011;2002;48.812;9.180;2023-02-25T09:34:44;1.27;;;1.00;;
3975;SDS011;2002;48.812;9.180;2023-02-25T09:37:10;1.40;;;1.00;;
3975;SDS011;2002;48.812;9.180;2023-02-25T09:39:37;1.20;;;1.10;;
3975;SDS011;2002;48.812;9.180;2023-02-25T09:42:06;0.87;;;0.80;;
3975;SDS011;2002;48.812;9.180;2023-02-25T09:52:03;0.80;;;0.70;;
3975;SDS011;2002;48.812;9.180;2023-02-25T09:54:41;1.13;;;1.03;;
3975;SDS011;2002;48.812;9.180;2023-02-25T09:57:10;1.20;;;1.03;;
3975;SDS011;2002;48.812;9.180;2023-02-25T09:59:42;1.00;;;1.00;;
3975;SDS011;2002;48.812;9.180;2023-02-25T10:10:32;1.40;;;1.10;;
3975;SDS011;2002;48.812;9.180;2023-02-25T10:19:21;1.10;;;1.00;;
3975;SDS011;2002;48.812;9.180;2023-02-25T10:21:36;1.20;;;1.10;;
3975;SDS011;2002;48.812;9.180;2023-02-25T10:29:38;1.10;;;1.00;;
3975;SDS011;2002;48.812;9.180;2023-02-25T10:32:15;1.27;;;0.70;;
3975;SDS011;2002;48.812;9.180;2023-02-25T10:34:45;0.80;;;0.70;;
3975;SDS011;2002;48.812;9.180;2023-02-25T10:37:16;1.73;;;0.90;;
3975;SDS011;2002;48.812;9.180;2023-02-25T10:39:44;1.60;;;1.10;;
3975;SDS011;2002;48.812;9.180;2023-02-25T10:42:14;1.40;;;1.10;;
3975;SDS011;2002;48.812;9.180;2023-02-25T10:44:41;1.30;;;1.20;;
3975;SDS011;2002;48.812;9.180;2023-02-25T10:47:08;1.00;;;0.73;;
3975;SDS011;2002;48.812;9.180;2023-02-25T10:49:40;1.50;;;1.40;;
3975;SDS011;2002;48.812;9.180;2023-02-25T10:52:50;1.03;;;0.93;;
3975;SDS011;2002;48.812;9.180;2023-02-25T10:55:40;1.27;;;0.90;;
3975;SDS011;2002;48.812;9.180;2023-02-25T11:03:41;1.20;;;1.10;;
3975;SDS011;2002;48.812;9.180;2023-02-25T11:06:32;1.47;;;1.00;;
3975;SDS011;2002;48.812;9.180;2023-02-25T11:09:03;1.07;;;0.83;;
3975;SDS011;2002;48.812;9.180;2023-02-25T11:11:31;1.07;;;0.97;;
3975;SDS011;2002;48.812;9.180;2023-02-25T11:16:30;1.10;;;1.00;;
3975;SDS011;2002;48.812;9.180;2023-02-25T11:21:56;0.87;;;0.70;;
3975;SDS011;2002;48.812;9.180;2023-02-25T11:24:28;0.80;;;0.80;;
3975;SDS011;2002;48.812;9.180;2023-02-25T11:26:57;1.87;;;0.97;;
3975;SDS011;2002;48.812;9.180;2023-02-25T11:29:31;1.63;;;0.90;;
3975;SDS011;2002;48.812;9.180;2023-02-25T11:32:21;1.30;;;0.57;;
3975;SDS011;2002;48.812;9.180;2023-02-25T11:34:48;1.00;;;0.90;;
3975;SDS011;2002;48.812;9.180;2023-02-25T11:37:28;1.57;;;1.10;;
3975;SDS011;2002;48.812;9.180;2023-02-25T11:40:01;1.57;;;0.90;;
3975;SDS011;2002;48.812;9.180;2023-02-25T11:42:43;1.27;;;1.00;;
3975;SDS011;2002;48.812;9.180;2023-02-25T11:45:23;1.77;;;1.00;;
3975;SDS011;2002;48.812;9.180;2023-02-25T11:47:48;1.37;;;1.20;;
3975;SDS011;2002;48.812;9.180;2023-02-25T11:52:52;1.20;;;0.67;;
3975;SDS011;2002;48.812;9.180;2023-02-25T11:55:59;1.00;;;0.87;;
3975;SDS011;2002;48.812;9.180;2023-02-25T12:01:24;1.50;;;1.00;;
3975;SDS011;2002;48.812;9.180;2023-02-25T12:09:43;0.70;;;0.70;;
3975;SDS011;2002;48.812;9.180;2023-02-25T12:12:54;1.80;;;1.33;;
3975;SDS011;2002;48.812;9.180;2023-02-25T12:21:55;1.30;;;1.10;;
3975;SDS011;2002;48.812;9.180;2023-02-25T12:27:38;1.43;;;0.60;;
3975;SDS011;2002;48.812;9.180;2023-02-25T12:30:29;0.97;;;0.80;;
3975;SDS011;2002;48.812;9.180;2023-02-25T12:41:59;0.93;;;0.70;;
3975;SDS011;2002;48.812;9.180;2023-02-25T12:58:47;1.10;;;0.90;;
3975;SDS011;2002;48.812;9.180;2023-02-25T13:07:10;1.67;;;0.93;;
3975;SDS011;2002;48.812;9.180;2023-02-25T13:24:04;1.53;;;1.23;;
3975;SDS011;2002;48.812;9.180;2023-02-25T13:26:44;1.03;;;0.80;;
3975;SDS011;2002;48.812;9.180;2023-02-25T13:29:33;0.87;;;0.80;;
3975;SDS011;2002;48.812;9.180;2023-02-25T13:37:52;1.37;;;0.70;;
3975;SDS011;2002;48.812;9.180;2023-02-25T13:40:55;0.80;;;0.80;;
3975;SDS011;2002;48.812;9.180;2023-02-25T13:46:51;0.90;;;0.70;;
3975;SDS011;2002;48.812;9.180;2023-02-25T13:49:30;0.80;;;0.80;;
3975;SDS011;2002;48.812;9.180;2023-02-25T13:52:27;1.13;;;0.67;;
3975;SDS011;2002;48.812;9.180;2023-02-25T13:56:18;1.10;;;0.67;;
3975;SDS011;2002;48.812;9.180;2023-02-25T13:58:39;1.23;;;0.90;;
3975;SDS011;2002;48.812;9.180;2023-02-25T14:12:20;1.30;;;1.00;;
3975;SDS011;2002;48.812;9.180;2023-02-25T14:17:57;1.20;;;0.93;;
3975;SDS011;2002;48.812;9.180;2023-02-25T14:23:55;1.13;;;1.00;;
3975;SDS011;2002;48.812;9.180;2023-02-25T14:29:12;0.63;;;0.53;;
3975;SDS011;2002;48.812;9.180;2023-02-25T14:43:17;1.07;;;0.90;;
3975;SDS011;2002;48.812;9.180;2023-02-25T14:48:20;1.00;;;0.80;;
3975;SDS011;2002;48.812;9.180;2023-02-25T14:51:08;1.03;;;0.87;;
3975;SDS011;2002;48.812;9.180;2023-02-25T14:54:03;1.10;;;0.93;;
3975;SDS011;2002;48.812;9.180;2023-02-25T15:05:30;0.90;;;0.80;;
3975;SDS011;2002;48.812;9.180;2023-02-25T15:10:39;0.60;;;0.50;;
3975;SDS011;2002;48.812;9.180;2023-02-25T15:16:01;0.80;;;0.70;;
3975;SDS011;2002;48.812;9.180;2023-02-25T15:24:01;0.80;;;0.70;;
3975;SDS011;2002;48.812;9.180;2023-02-25T15:26:45;1.13;;;0.77;;
3975;SDS011;2002;48.812;9.180;2023-02-25T15:29:20;3.50;;;0.77;;
3975;SDS011;2002;48.812;9.180;2023-02-25T15:32:09;0.90;;;0.70;;
3975;SDS011;2002;48.812;9.180;2023-02-25T15:37:26;0.97;;;0.77;;
3975;SDS011;2002;48.812;9.180;2023-02-25T15:39:58;1.17;;;0.60;;
3975;SDS011;2002;48.812;9.180;2023-02-25T15:42:39;1.13;;;0.70;;
3975;SDS011;2002;48.812;9.180;2023-02-25T15:45:27;1.63;;;0.80;;
3975;SDS011;2002;48.812;9.180;2023-02-25T15:50:56;0.93;;;0.83;;
3975;SDS011;2002;48.812;9.180;2023-02-25T16:00:57;1.20;;;0.87;;
3975;SDS011;2002;48.812;9.180;2023-02-25T16:03:43;0.93;;;0.63;;
3975;SDS011;2002;48.812;9.180;2023-02-25T16:09:05;0.60;;;0.40;;
3975;SDS011;2002;48.812;9.180;2023-02-25T16:14:11;1.57;;;0.83;;
3975;SDS011;2002;48.812;9.180;2023-02-25T16:16:45;1.40;;;1.00;;
3975;SDS011;2002;48.812;9.180;2023-02-25T16:19:15;1.53;;;0.50;;
3975;SDS011;2002;48.812;9.180;2023-02-25T16:21:48;1.97;;;0.90;;
3975;SDS011;2002;48.812;9.180;2023-02-25T16:24:17;1.23;;;1.10;;
3975;SDS011;2002;48.812;9.180;2023-02-25T16:29:39;0.80;;;0.80;;
3975;SDS011;2002;48.812;9.180;2023-02-25T16:32:29;1.07;;;0.87;;
3975;SDS011;2002;48.812;9.180;2023-02-25T16:40:24;0.80;;;0.60;;
3975;SDS011;2002;48.812;9.180;2023-02-25T16:42:56;1.40;;;0.80;;
3975;SDS011;2002;48.812;9.180;2023-02-25T16:45:24;1.80;;;0.90;;
3975;SDS011;2002;48.812;9.180;2023-02-25T16:48:04;1.20;;;0.80;;
3975;SDS011;2002;48.812;9.180;2023-02-25T16:50:36;0.90;;;0.70;;
3975;SDS011;2002;48.812;9.180;2023-02-25T16:53:03;0.77;;;0.57;;
3975;SDS011;2002;48.812;9.180;2023-02-25T16:55:29;1.43;;;0.70;;
3975;SDS011;2002;48.812;9.180;2023-02-25T16:58:04;1.00;;;0.80;;
3975;SDS011;2002;48.812;9.180;2023-02-25T17:00:51;0.97;;;0.60;;
3975;SDS011;2002;48.812;9.180;2023-02-25T17:03:22;1.63;;;0.73;;
3975;SDS011;2002;48.812;9.180;2023-02-25T17:05:57;0.80;;;0.80;;
3975;SDS011;2002;48.812;9.180;2023-02-25T17:08:23;1.17;;;0.90;;
3975;SDS011;2002;48.812;9.180;2023-02-25T17:10:49;0.77;;;0.67;;
3975;SDS011;2002;48.812;9.180;2023-02-25T17:13:20;1.07;;;1.00;;
3975;SDS011;2002;48.812;9.180;2023-02-25T17:15:49;1.10;;;0.90;;
3975;SDS011;2002;48.812;9.180;2023-02-25T17:20:45;1.07;;;0.97;;
3975;SDS011;2002;48.812;9.180;2023-02-25T17:23:12;0.70;;;0.60;;
3975;SDS011;2002;48.812;9.180;2023-02-25T17:25:40;1.00;;;0.80;;
3975;SDS011;2002;48.812;9.180;2023-02-25T17:28:14;0.80;;;0.60;;
3975;SDS011;2002;48.812;9.180;2023-02-25T17:30:50;0.90;;;0.80;;
3975;SDS011;2002;48.812;9.180;2023-02-25T17:33:21;1.00;;;0.70;;
3975;SDS011;2002;48.812;9.180;2023-02-25T17:35:50;1.17;;;0.73;;
3975;SDS011;2002;48.812;9.180;2023-02-25T17:38:19;1.17;;;1.07;;
3975;SDS011;2002;48.812;9.180;2023-02-25T17:40:47;1.10;;;0.83;;
3975;SDS011;2002;48.812;9.180;2023-02-25T17:48:26;0.50;;;0.50;;
3975;SDS011;2002;48.812;9.180;2023-02-25T17:50:56;1.43;;;0.80;;
3975;SDS011;2002;48.812;9.180;2023-02-25T17:56:06;0.63;;;0.57;;
3975;SDS011;2002;48.812;9.180;2023-02-25T17:58:40;1.17;;;0.70;;
3975;SDS011;2002;48.812;9.180;2023-02-25T18:01:06;1.63;;;0.57;;
3975;SDS011;2002;48.812;9.180;2023-02-25T18:03:45;1.17;;;0.73;;
3975;SDS011;2002;48.812;9.180;2023-02-25T18:06:31;1.47;;;0.87;;
3975;SDS011;2002;48.812;9.180;2023-02-25T18:09:01;0.50;;;0.40;;
3975;SDS011;2002;48.812;9.180;2023-02-25T18:11:34;0.70;;;0.60;;
3975;SDS011;2002;48.812;9.180;2023-02-25T18:16:55;1.10;;;0.67;;
3975;SDS011;2002;48.812;9.180;2023-02-25T18:19:23;0.70;;;0.60;;
3975;SDS011;2002;48.812;9.180;2023-02-25T18:21:51;0.80;;;0.60;;
3975;SDS011;2002;48.812;9.180;2023-02-25T18:24:21;0.80;;;0.63;;
3975;SDS011;2002;48.812;9.180;2023-02-25T18:27:01;1.03;;;0.73;;
3975;SDS011;2002;48.812;9.180;2023-02-25T18:29:29;0.70;;;0.70;;
3975;SDS011;2002;48.812;9.180;2023-02-25T18:31:55;0.90;;;0.50;;
3975;SDS011;2002;48.812;9.180;2023-02-25T18:34:20;0.70;;;0.60;;
3975;SDS011;2002;48.812;9.180;2023-02-25T18:36:46;0.80;;;0.50;;
3975;SDS011;2002;48.812;9.180;2023-02-25T18:39:11;0.60;;;0.60;;
3975;SDS011;2002;48.812;9.180;2023-02-25T18:41:37;0.70;;;0.70;;
3975;SDS011;2002;48.812;9.180;2023-02-25T18:44:08;0.70;;;0.57;;
3975;SDS011;2002;48.812;9.180;2023-02-25T18:46:37;1.00;;;0.70;;
3975;SDS011;2002;48.812;9.180;2023-02-25T18:49:02;0.97;;;0.70;;
3975;SDS011;2002;48.812;9.180;2023-02-25T18:51:28;0.70;;;0.50;;
3975;SDS011;2002;48.812;9.180;2023-02-25T18:53:53;0.70;;;0.63;;
3975;SDS011;2002;48.812;9.180;2023-02-25T18:56:19;1.57;;;0.80;;
3975;SDS011;2002;48.812;9.180;2023-02-25T18:58:45;0.70;;;0.70;;
3975;SDS011;2002;48.812;9.180;2023-02-25T19:01:20;1.00;;;0.60;;
3975;SDS011;2002;48.812;9.180;2023-02-25T19:03:48;1.00;;;0.77;;
3975;SDS011;2002;48.812;9.180;2023-02-25T19:06:14;0.60;;;0.50;;
3975;SDS011;2002;48.812;9.180;2023-02-25T19:08:41;1.00;;;0.63;;
3975;SDS011;2002;48.812;9.180;2023-02-25T19:11:08;0.80;;;0.60;;
3975;SDS011;2002;48.812;9.180;2023-02-25T19:13:40;0.70;;;0.60;;
3975;SDS011;2002;48.812;9.180;2023-02-25T19:16:06;1.33;;;0.70;;
3975;SDS011;2002;48.812;9.180;2023-02-25T19:18:32;0.90;;;0.60;;
3975;SDS011;2002;48.812;9.180;2023-02-25T19:20:59;0.97;;;0.90;;
3975;SDS011;2002;48.812;9.180;2023-02-25T19:23:24;1.30;;;0.70;;